sensor_id;sensor_type;location;lat;lon;timestamp;P1;durP1;ratioP1;P2;durP2;ratioP2
17886;SDS011;9069;52.044;7.472;2023-05-21T00:00:41;4.70;;;2.85;;
17886;SDS011;9069;52.044;7.472;2023-05-21T00:03:08;3.08;;;2.60;;
17886;SDS011;9069;52.044;7.472;2023-05-21T00:05:39;3.85;;;2.47;;
17886;SDS011;9069;52.044;7.472;2023-05-21T00:08:06;3.90;;;2.30;;
17886;SDS011;9069;52.044;7.472;2023-05-21T00:10:33;3.33;;;2.75;;
17886;SDS011;9069;52.044;7.472;2023-05-21T00:13:00;3.90;;;3.00;;
17886;SDS011;9069;52.044;7.472;2023-05-21T00:15:27;3.13;;;2.45;;
17886;SDS011;9069;52.044;7.472;2023-05-21T00:17:54;4.13;;;3.22;;
17886;SDS011;9069;52.044;7.472;2023-05-21T00:20:20;3.25;;;2.58;;
17886;SDS011;9069;52.044;7.472;2023-05-21T00:22:48;3.50;;;2.75;;
17886;SDS011;9069;52.044;7.472;2023-05-21T00:25:15;3.45;;;2.53;;
17886;SDS011;9069;52.044;7.472;2023-05-21T00:27:41;3.28;;;2.35;;
17886;SDS011;9069;52.044;7.472;2023-05-21T00:30:08;3.83;;;2.58;;
17886;SDS011;9069;52.044;7.472;2023-05-21T00:32:35;5.05;;;2.33;;
17886;SDS011;9069;52.044;7.472;2023-05-21T00:35:03;4.00;;;2.50;;
17886;SDS011;9069;52.044;7.472;2023-05-21T00:37:29;3.90;;;2.63;;
17886;SDS011;9069;52.044;7.472;2023-05-21T00:39:59;3.50;;;2.30;;
17886;SDS011;9069;52.044;7.472;2023-05-21T00:42:27;3.55;;;2.58;;
17886;SDS011;9069;52.044;7.472;2023-05-21T00:44:55;2.97;;;2.30;;
17886;SDS011;9069;52.044;7.472;2023-05-21T00:47:22;5.00;;;2.67;;
17886;SDS011;9069;52.044;7.472;2023-05-21T00:49:52;2.90;;;2.33;;
17886;SDS011;9069;52.044;7.472;2023-05-21T00:52:20;3.90;;;2.55;;
17886;SDS011;9069;52.044;7.472;2023-05-21T00:54:48;5.78;;;3.00;;
17886;SDS011;9069;52.044;7.472;2023-05-21T00:57:16;5.10;;;2.55;;
17886;SDS011;9069;52.044;7.472;2023-05-21T00:59:51;3.17;;;2.72;;
17886;SDS011;9069;52.044;7.472;2023-05-21T01:02:18;4.72;;;2.45;;
17886;SDS011;9069;52.044;7.472;2023-05-21T01:04:45;3.35;;;2.47;;
17886;SDS011;9069;52.044;7.472;2023-05-21T01:07:12;5.50;;;2.53;;
17886;SDS011;9069;52.044;7.472;2023-05-21T01:09:40;5.20;;;2.45;;
17886;SDS011;9069;52.044;7.472;2023-05-21T01:12:07;4.22;;;3.00;;
17886;SDS011;9069;52.044;7.472;2023-05-21T01:14:35;3.05;;;2.70;;
17886;SDS011;9069;52.044;7.472;2023-05-21T01:17:03;5.30;;;2.70;;
17886;SDS011;9069;52.044;7.472;2023-05-21T01:19:31;4.07;;;3.05;;
17886;SDS011;9069;52.044;7.472;2023-05-21T01:22:06;4.43;;;3.00;;
17886;SDS011;9069;52.044;7.472;2023-05-21T01:24:34;4.20;;;2.70;;
17886;SDS011;9069;52.044;7.472;2023-05-21T01:27:01;3.50;;;2.63;;
17886;SDS011;9069;52.044;7.472;2023-05-21T01:29:31;6.03;;;2.80;;
17886;SDS011;9069;52.044;7.472;2023-05-21T01:34:44;4.30;;;2.92;;
17886;SDS011;9069;52.044;7.472;2023-05-21T01:39:59;4.47;;;3.15;;
17886;SDS011;9069;52.044;7.472;2023-05-21T01:42:48;5.00;;;3.33;;
17886;SDS011;9069;52.044;7.472;2023-05-21T01:45:15;3.83;;;3.00;;
17886;SDS011;9069;52.044;7.472;2023-05-21T01:47:43;4.03;;;3.20;;
17886;SDS011;9069;52.044;7.472;2023-05-21T01:50:13;3.75;;;3.03;;
17886;SDS011;9069;52.044;7.472;2023-05-21T01:53:02;5.40;;;3.00;;
17886;SDS011;9069;52.044;7.472;2023-05-21T01:55:31;5.10;;;2.92;;
17886;SDS011;9069;52.044;7.472;2023-05-21T01:57:58;5.40;;;3.25;;
17886;SDS011;9069;52.044;7.472;2023-05-21T02:00:27;5.97;;;3.35;;
17886;SDS011;9069;52.044;7.472;2023-05-21T02:02:54;4.93;;;2.92;;
17886;SDS011;9069;52.044;7.472;2023-05-21T02:05:22;5.38;;;3.38;;
17886;SDS011;9069;52.044;7.472;2023-05-21T02:07:49;4.32;;;3.47;;
17886;SDS011;9069;52.044;7.472;2023-05-21T02:10:17;9.13;;;3.45;;
17886;SDS011;9069;52.044;7.472;2023-05-21T02:12:44;3.80;;;3.35;;
17886;SDS011;9069;52.044;7.472;2023-05-21T02:15:11;4.65;;;3.08;;
17886;SDS011;9069;52.044;7.472;2023-05-21T02:17:39;4.20;;;3.42;;
17886;SDS011;9069;52.044;7.472;2023-05-21T02:20:10;4.90;;;3.50;;
17886;SDS011;9069;52.044;7.472;2023-05-21T02:22:37;4.10;;;3.13;;
17886;SDS011;9069;52.044;7.472;2023-05-21T02:25:06;5.35;;;3.55;;
17886;SDS011;9069;52.044;7.472;2023-05-21T02:27:34;4.75;;;3.75;;
17886;SDS011;9069;52.044;7.472;2023-05-21T02:30:02;5.95;;;3.17;;
17886;SDS011;9069;52.044;7.472;2023-05-21T02:32:30;3.95;;;3.53;;
17886;SDS011;9069;52.044;7.472;2023-05-21T02:34:57;5.70;;;3.05;;
17886;SDS011;9069;52.044;7.472;2023-05-21T02:37:25;4.35;;;3.22;;
17886;SDS011;9069;52.044;7.472;2023-05-21T02:39:59;4.55;;;3.13;;
17886;SDS011;9069;52.044;7.472;2023-05-21T02:42:29;5.25;;;3.63;;
17886;SDS011;9069;52.044;7.472;2023-05-21T02:44:55;6.18;;;2.78;;
17886;SDS011;9069;52.044;7.472;2023-05-21T02:47:22;3.17;;;2.88;;
17886;SDS011;9069;52.044;7.472;2023-05-21T02:49:51;9.23;;;3.40;;
17886;SDS011;9069;52.044;7.472;2023-05-21T02:52:19;5.05;;;3.40;;
17886;SDS011;9069;52.044;7.472;2023-05-21T02:54:50;5.88;;;3.63;;
17886;SDS011;9069;52.044;7.472;2023-05-21T02:57:17;7.47;;;3.80;;
17886;SDS011;9069;52.044;7.472;2023-05-21T02:59:44;5.45;;;3.65;;
17886;SDS011;9069;52.044;7.472;2023-05-21T03:02:11;5.45;;;3.35;;
17886;SDS011;9069;52.044;7.472;2023-05-21T03:04:38;6.68;;;3.90;;
17886;SDS011;9069;52.044;7.472;2023-05-21T03:07:12;6.43;;;3.38;;
17886;SDS011;9069;52.044;7.472;2023-05-21T03:09:40;5.32;;;3.85;;
17886;SDS011;9069;52.044;7.472;2023-05-21T03:12:08;8.38;;;3.60;;
17886;SDS011;9069;52.044;7.472;2023-05-21T03:14:35;5.93;;;3.45;;
17886;SDS011;9069;52.044;7.472;2023-05-21T03:17:03;6.90;;;4.20;;
17886;SDS011;9069;52.044;7.472;2023-05-21T03:19:31;5.60;;;3.60;;
17886;SDS011;9069;52.044;7.472;2023-05-21T03:22:03;7.38;;;3.55;;
17886;SDS011;9069;52.044;7.472;2023-05-21T03:24:33;4.65;;;3.28;;
17886;SDS011;9069;52.044;7.472;2023-05-21T03:27:00;4.82;;;3.63;;
17886;SDS011;9069;52.044;7.472;2023-05-21T03:29:27;4.22;;;3.33;;
17886;SDS011;9069;52.044;7.472;2023-05-21T03:31:54;6.03;;;3.60;;
17886;SDS011;9069;52.044;7.472;2023-05-21T03:34:22;4.50;;;3.55;;
17886;SDS011;9069;52.044;7.472;2023-05-21T03:36:49;6.60;;;3.47;;
17886;SDS011;9069;52.044;7.472;2023-05-21T03:39:17;5.10;;;3.60;;
17886;SDS011;9069;52.044;7.472;2023-05-21T03:41:44;9.25;;;4.13;;
17886;SDS011;9069;52.044;7.472;2023-05-21T03:44:28;5.05;;;3.72;;
17886;SDS011;9069;52.044;7.472;2023-05-21T03:47:14;4.45;;;3.58;;
17886;SDS011;9069;52.044;7.472;2023-05-21T03:49:41;7.20;;;3.92;;
17886;SDS011;9069;52.044;7.472;2023-05-21T03:52:08;6.45;;;3.75;;
17886;SDS011;9069;52.044;7.472;2023-05-21T03:54:35;5.10;;;3.38;;
17886;SDS011;9069;52.044;7.472;2023-05-21T03:57:08;5.05;;;3.88;;
17886;SDS011;9069;52.044;7.472;2023-05-21T03:59:35;4.28;;;3.45;;
17886;SDS011;9069;52.044;7.472;2023-05-21T04:02:03;5.40;;;3.90;;
17886;SDS011;9069;52.044;7.472;2023-05-21T04:04:30;5.55;;;3.80;;
17886;SDS011;9069;52.044;7.472;2023-05-21T04:06:58;6.18;;;3.75;;
17886;SDS011;9069;52.044;7.472;2023-05-21T04:09:26;6.78;;;4.38;;
17886;SDS011;9069;52.044;7.472;2023-05-21T04:11:53;5.50;;;3.72;;
17886;SDS011;9069;52.044;7.472;2023-05-21T04:14:19;6.38;;;3.55;;
17886;SDS011;9069;52.044;7.472;2023-05-21T04:16:49;8.10;;;4.45;;
17886;SDS011;9069;52.044;7.472;2023-05-21T04:19:16;6.97;;;4.10;;
17886;SDS011;9069;52.044;7.472;2023-05-21T04:21:43;5.68;;;3.60;;
17886;SDS011;9069;52.044;7.472;2023-05-21T04:24:11;5.90;;;4.07;;
17886;SDS011;9069;52.044;7.472;2023-05-21T04:26:47;5.90;;;3.97;;
17886;SDS011;9069;52.044;7.472;2023-05-21T04:29:15;6.65;;;3.67;;
17886;SDS011;9069;52.044;7.472;2023-05-21T04:31:43;5.18;;;3.63;;
17886;SDS011;9069;52.044;7.472;2023-05-21T04:34:12;5.95;;;3.63;;
17886;SDS011;9069;52.044;7.472;2023-05-21T04:36:39;5.90;;;3.80;;
17886;SDS011;9069;52.044;7.472;2023-05-21T04:39:06;8.05;;;3.90;;
17886;SDS011;9069;52.044;7.472;2023-05-21T04:41:33;4.85;;;3.67;;
17886;SDS011;9069;52.044;7.472;2023-05-21T04:44:01;5.35;;;3.83;;
17886;SDS011;9069;52.044;7.472;2023-05-21T04:46:30;6.05;;;3.85;;
17886;SDS011;9069;52.044;7.472;2023-05-21T04:48:59;6.22;;;4.78;;
17886;SDS011;9069;52.044;7.472;2023-05-21T04:51:29;7.25;;;4.20;;
17886;SDS011;9069;52.044;7.472;2023-05-21T04:53:56;8.60;;;4.30;;
17886;SDS011;9069;52.044;7.472;2023-05-21T04:56:24;4.60;;;3.80;;
17886;SDS011;9069;52.044;7.472;2023-05-21T04:58:52;5.30;;;3.83;;
17886;SDS011;9069;52.044;7.472;2023-05-21T05:01:19;9.02;;;4.25;;
17886;SDS011;9069;52.044;7.472;2023-05-21T05:03:52;7.72;;;4.40;;
17886;SDS011;9069;52.044;7.472;2023-05-21T05:06:19;7.18;;;4.28;;
17886;SDS011;9069;52.044;7.472;2023-05-21T05:08:47;4.82;;;3.22;;
17886;SDS011;9069;52.044;7.472;2023-05-21T05:11:14;6.38;;;3.50;;
17886;SDS011;9069;52.044;7.472;2023-05-21T05:13:42;8.05;;;3.97;;
17886;SDS011;9069;52.044;7.472;2023-05-21T05:16:09;7.80;;;3.95;;
17886;SDS011;9069;52.044;7.472;2023-05-21T05:18:36;9.68;;;3.85;;
17886;SDS011;9069;52.044;7.472;2023-05-21T05:21:03;5.30;;;3.85;;
17886;SDS011;9069;52.044;7.472;2023-05-21T05:23:30;6.32;;;4.35;;
17886;SDS011;9069;52.044;7.472;2023-05-21T05:25:57;6.20;;;3.47;;
17886;SDS011;9069;52.044;7.472;2023-05-21T05:28:24;8.73;;;3.95;;
17886;SDS011;9069;52.044;7.472;2023-05-21T05:30:51;5.20;;;3.47;;
17886;SDS011;9069;52.044;7.472;2023-05-21T05:33:22;8.05;;;4.82;;
17886;SDS011;9069;52.044;7.472;2023-05-21T05:35:48;5.25;;;3.40;;
17886;SDS011;9069;52.044;7.472;2023-05-21T05:38:15;5.25;;;3.95;;
17886;SDS011;9069;52.044;7.472;2023-05-21T05:40:42;6.22;;;4.15;;
17886;SDS011;9069;52.044;7.472;2023-05-21T05:43:10;8.02;;;4.53;;
17886;SDS011;9069;52.044;7.472;2023-05-21T05:45:36;5.97;;;3.83;;
17886;SDS011;9069;52.044;7.472;2023-05-21T05:48:09;6.15;;;3.85;;
17886;SDS011;9069;52.044;7.472;2023-05-21T05:50:37;5.93;;;3.42;;
17886;SDS011;9069;52.044;7.472;2023-05-21T05:53:04;7.40;;;4.30;;
17886;SDS011;9069;52.044;7.472;2023-05-21T05:55:32;5.32;;;3.80;;
17886;SDS011;9069;52.044;7.472;2023-05-21T05:57:59;5.13;;;4.00;;
17886;SDS011;9069;52.044;7.472;2023-05-21T06:00:26;8.63;;;4.32;;
17886;SDS011;9069;52.044;7.472;2023-05-21T06:02:54;4.25;;;3.47;;
17886;SDS011;9069;52.044;7.472;2023-05-21T06:05:21;6.68;;;3.70;;
17886;SDS011;9069;52.044;7.472;2023-05-21T06:07:49;8.98;;;4.70;;
17886;SDS011;9069;52.044;7.472;2023-05-21T06:10:17;6.95;;;4.15;;
17886;SDS011;9069;52.044;7.472;2023-05-21T06:12:46;5.80;;;3.88;;
17886;SDS011;9069;52.044;7.472;2023-05-21T06:15:13;5.07;;;4.32;;
17886;SDS011;9069;52.044;7.472;2023-05-21T06:17:41;7.18;;;4.35;;
17886;SDS011;9069;52.044;7.472;2023-05-21T06:20:10;8.65;;;3.97;;
17886;SDS011;9069;52.044;7.472;2023-05-21T06:22:37;7.18;;;4.13;;
17886;SDS011;9069;52.044;7.472;2023-05-21T06:25:06;9.32;;;4.47;;
17886;SDS011;9069;52.044;7.472;2023-05-21T06:27:34;6.40;;;3.75;;
17886;SDS011;9069;52.044;7.472;2023-05-21T06:30:02;7.05;;;4.05;;
17886;SDS011;9069;52.044;7.472;2023-05-21T06:32:30;6.72;;;4.00;;
17886;SDS011;9069;52.044;7.472;2023-05-21T06:34:57;5.68;;;3.75;;
17886;SDS011;9069;52.044;7.472;2023-05-21T06:37:23;6.53;;;4.13;;
17886;SDS011;9069;52.044;7.472;2023-05-21T06:39:52;11.60;;;4.63;;
17886;SDS011;9069;52.044;7.472;2023-05-21T06:42:19;9.10;;;4.30;;
17886;SDS011;9069;52.044;7.472;2023-05-21T06:45:12;9.35;;;4.57;;
17886;SDS011;9069;52.044;7.472;2023-05-21T06:47:42;6.57;;;4.32;;
17886;SDS011;9069;52.044;7.472;2023-05-21T06:50:09;7.65;;;4.55;;
17886;SDS011;9069;52.044;7.472;2023-05-21T06:52:36;5.88;;;4.35;;
17886;SDS011;9069;52.044;7.472;2023-05-21T06:55:02;4.97;;;3.80;;
17886;SDS011;9069;52.044;7.472;2023-05-21T06:57:49;7.38;;;4.30;;
17886;SDS011;9069;52.044;7.472;2023-05-21T07:00:15;7.65;;;4.65;;
17886;SDS011;9069;52.044;7.472;2023-05-21T07:02:43;8.32;;;4.25;;
17886;SDS011;9069;52.044;7.472;2023-05-21T07:05:09;6.25;;;4.28;;
17886;SDS011;9069;52.044;7.472;2023-05-21T07:07:36;8.40;;;4.60;;
17886;SDS011;9069;52.044;7.472;2023-05-21T07:10:03;6.13;;;4.30;;
17886;SDS011;9069;52.044;7.472;2023-05-21T07:12:31;7.47;;;4.82;;
17886;SDS011;9069;52.044;7.472;2023-05-21T07:14:58;7.68;;;4.30;;
17886;SDS011;9069;52.044;7.472;2023-05-21T07:17:25;6.10;;;4.38;;
17886;SDS011;9069;52.044;7.472;2023-05-21T07:19:52;7.63;;;4.20;;
17886;SDS011;9069;52.044;7.472;2023-05-21T07:22:19;7.22;;;4.50;;
17886;SDS011;9069;52.044;7.472;2023-05-21T07:24:46;6.32;;;4.30;;
17886;SDS011;9069;52.044;7.472;2023-05-21T07:27:13;8.07;;;4.28;;
17886;SDS011;9069;52.044;7.472;2023-05-21T07:29:52;8.75;;;4.63;;
17886;SDS011;9069;52.044;7.472;2023-05-21T07:32:19;6.63;;;4.35;;
17886;SDS011;9069;52.044;7.472;2023-05-21T07:34:47;6.22;;;4.50;;
17886;SDS011;9069;52.044;7.472;2023-05-21T07:37:13;8.07;;;4.40;;
17886;SDS011;9069;52.044;7.472;2023-05-21T07:39:40;6.32;;;4.22;;
17886;SDS011;9069;52.044;7.472;2023-05-21T07:42:09;7.97;;;4.72;;
17886;SDS011;9069;52.044;7.472;2023-05-21T07:44:36;9.13;;;4.72;;
17886;SDS011;9069;52.044;7.472;2023-05-21T07:47:03;7.68;;;5.13;;
17886;SDS011;9069;52.044;7.472;2023-05-21T07:49:30;8.45;;;5.07;;
17886;SDS011;9069;52.044;7.472;2023-05-21T07:51:57;6.32;;;4.97;;
17886;SDS011;9069;52.044;7.472;2023-05-21T07:54:24;8.15;;;5.35;;
17886;SDS011;9069;52.044;7.472;2023-05-21T07:56:51;7.15;;;5.30;;
17886;SDS011;9069;52.044;7.472;2023-05-21T07:59:44;8.48;;;5.63;;
17886;SDS011;9069;52.044;7.472;2023-05-21T08:02:11;8.48;;;5.30;;
17886;SDS011;9069;52.044;7.472;2023-05-21T08:04:38;7.32;;;5.10;;
17886;SDS011;9069;52.044;7.472;2023-05-21T08:07:08;6.97;;;4.90;;
17886;SDS011;9069;52.044;7.472;2023-05-21T08:09:35;7.25;;;4.75;;
17886;SDS011;9069;52.044;7.472;2023-05-21T08:12:03;8.35;;;5.32;;
17886;SDS011;9069;52.044;7.472;2023-05-21T08:14:30;8.52;;;5.50;;
17886;SDS011;9069;52.044;7.472;2023-05-21T08:16:58;6.63;;;4.88;;
17886;SDS011;9069;52.044;7.472;2023-05-21T08:19:24;12.10;;;5.28;;
17886;SDS011;9069;52.044;7.472;2023-05-21T08:21:51;8.30;;;5.43;;
17886;SDS011;9069;52.044;7.472;2023-05-21T08:24:19;7.93;;;5.22;;
17886;SDS011;9069;52.044;7.472;2023-05-21T08:26:47;7.07;;;5.53;;
17886;SDS011;9069;52.044;7.472;2023-05-21T08:29:16;9.88;;;5.75;;
17886;SDS011;9069;52.044;7.472;2023-05-21T08:31:43;7.50;;;5.35;;
17886;SDS011;9069;52.044;7.472;2023-05-21T08:34:10;9.75;;;6.38;;
17886;SDS011;9069;52.044;7.472;2023-05-21T08:36:44;7.78;;;6.15;;
17886;SDS011;9069;52.044;7.472;2023-05-21T08:39:35;8.82;;;6.20;;
17886;SDS011;9069;52.044;7.472;2023-05-21T08:42:09;10.07;;;6.60;;
17886;SDS011;9069;52.044;7.472;2023-05-21T08:45:06;12.38;;;6.38;;
17886;SDS011;9069;52.044;7.472;2023-05-21T08:47:36;14.15;;;6.55;;
17886;SDS011;9069;52.044;7.472;2023-05-21T08:50:04;9.60;;;6.80;;
17886;SDS011;9069;52.044;7.472;2023-05-21T08:52:34;9.13;;;6.80;;
17886;SDS011;9069;52.044;7.472;2023-05-21T08:55:05;10.13;;;7.30;;
17886;SDS011;9069;52.044;7.472;2023-05-21T08:57:34;9.55;;;6.43;;
17886;SDS011;9069;52.044;7.472;2023-05-21T09:00:02;11.60;;;7.82;;
17886;SDS011;9069;52.044;7.472;2023-05-21T09:02:34;8.73;;;6.78;;
17886;SDS011;9069;52.044;7.472;2023-05-21T09:05:06;10.95;;;6.43;;
17886;SDS011;9069;52.044;7.472;2023-05-21T09:07:38;13.95;;;7.82;;
17886;SDS011;9069;52.044;7.472;2023-05-21T09:10:25;10.73;;;6.90;;
17886;SDS011;9069;52.044;7.472;2023-05-21T09:13:05;8.30;;;6.75;;
17886;SDS011;9069;52.044;7.472;2023-05-21T09:15:33;9.70;;;7.65;;
17886;SDS011;9069;52.044;7.472;2023-05-21T09:18:00;9.40;;;7.35;;
17886;SDS011;9069;52.044;7.472;2023-05-21T09:20:44;12.15;;;7.13;;
17886;SDS011;9069;52.044;7.472;2023-05-21T09:23:11;12.32;;;7.40;;
17886;SDS011;9069;52.044;7.472;2023-05-21T09:25:44;15.77;;;7.57;;
17886;SDS011;9069;52.044;7.472;2023-05-21T09:28:19;9.90;;;7.07;;
17886;SDS011;9069;52.044;7.472;2023-05-21T09:30:47;11.80;;;7.57;;
17886;SDS011;9069;52.044;7.472;2023-05-21T09:33:23;11.98;;;8.02;;
17886;SDS011;9069;52.044;7.472;2023-05-21T09:35:51;13.23;;;7.60;;
17886;SDS011;9069;52.044;7.472;2023-05-21T09:38:20;8.95;;;7.40;;
17886;SDS011;9069;52.044;7.472;2023-05-21T09:40:49;10.07;;;8.27;;
17886;SDS011;9069;52.044;7.472;2023-05-21T09:43:16;11.32;;;7.65;;
17886;SDS011;9069;52.044;7.472;2023-05-21T09:45:50;10.57;;;7.68;;
17886;SDS011;9069;52.044;7.472;2023-05-21T09:48:32;8.70;;;6.95;;
17886;SDS011;9069;52.044;7.472;2023-05-21T09:53:58;11.93;;;8.05;;
17886;SDS011;9069;52.044;7.472;2023-05-21T09:56:24;12.43;;;7.90;;
17886;SDS011;9069;52.044;7.472;2023-05-21T09:58:56;12.70;;;8.27;;
17886;SDS011;9069;52.044;7.472;2023-05-21T10:01:25;9.38;;;7.63;;
17886;SDS011;9069;52.044;7.472;2023-05-21T10:03:54;10.85;;;8.02;;
17886;SDS011;9069;52.044;7.472;2023-05-21T10:06:25;10.82;;;7.70;;
17886;SDS011;9069;52.044;7.472;2023-05-21T10:08:54;9.52;;;7.32;;
17886;SDS011;9069;52.044;7.472;2023-05-21T10:11:23;10.30;;;7.25;;
17886;SDS011;9069;52.044;7.472;2023-05-21T10:14:14;10.88;;;7.50;;
17886;SDS011;9069;52.044;7.472;2023-05-21T10:16:41;11.75;;;8.63;;
17886;SDS011;9069;52.044;7.472;2023-05-21T10:19:09;11.90;;;6.95;;
17886;SDS011;9069;52.044;7.472;2023-05-21T10:21:37;9.90;;;7.03;;
17886;SDS011;9069;52.044;7.472;2023-05-21T10:24:05;9.38;;;6.72;;
17886;SDS011;9069;52.044;7.472;2023-05-21T10:26:34;9.48;;;7.20;;
17886;SDS011;9069;52.044;7.472;2023-05-21T10:29:03;15.88;;;8.93;;
17886;SDS011;9069;52.044;7.472;2023-05-21T10:31:30;10.57;;;8.23;;
17886;SDS011;9069;52.044;7.472;2023-05-21T10:33:58;15.48;;;8.63;;
17886;SDS011;9069;52.044;7.472;2023-05-21T10:36:25;10.82;;;8.02;;
17886;SDS011;9069;52.044;7.472;2023-05-21T10:38:56;12.00;;;8.90;;
17886;SDS011;9069;52.044;7.472;2023-05-21T10:41:25;10.60;;;7.93;;
17886;SDS011;9069;52.044;7.472;2023-05-21T10:52:03;10.07;;;8.10;;
17886;SDS011;9069;52.044;7.472;2023-05-21T10:54:47;12.60;;;8.70;;
17886;SDS011;9069;52.044;7.472;2023-05-21T11:00:09;11.15;;;7.82;;
17886;SDS011;9069;52.044;7.472;2023-05-21T11:02:41;10.82;;;7.88;;
17886;SDS011;9069;52.044;7.472;2023-05-21T11:05:08;11.23;;;8.02;;
17886;SDS011;9069;52.044;7.472;2023-05-21T11:13:11;12.95;;;8.18;;
17886;SDS011;9069;52.044;7.472;2023-05-21T11:26:28;10.05;;;8.77;;
17886;SDS011;9069;52.044;7.472;2023-05-21T11:29:15;15.15;;;8.52;;
17886;SDS011;9069;52.044;7.472;2023-05-21T11:31:46;16.25;;;8.77;;
17886;SDS011;9069;52.044;7.472;2023-05-21T11:34:23;11.88;;;8.05;;
17886;SDS011;9069;52.044;7.472;2023-05-21T11:39:46;10.15;;;7.95;;
17886;SDS011;9069;52.044;7.472;2023-05-21T11:45:18;12.82;;;8.65;;
17886;SDS011;9069;52.044;7.472;2023-05-21T11:47:46;13.32;;;9.02;;
17886;SDS011;9069;52.044;7.472;2023-05-21T11:50:15;11.40;;;8.73;;
17886;SDS011;9069;52.044;7.472;2023-05-21T11:52:42;11.05;;;8.75;;
17886;SDS011;9069;52.044;7.472;2023-05-21T11:55:10;10.98;;;8.77;;
17886;SDS011;9069;52.044;7.472;2023-05-21T11:57:39;12.35;;;9.00;;
17886;SDS011;9069;52.044;7.472;2023-05-21T12:00:12;12.95;;;8.32;;
17886;SDS011;9069;52.044;7.472;2023-05-21T12:02:45;13.10;;;9.02;;
17886;SDS011;9069;52.044;7.472;2023-05-21T12:05:14;12.73;;;9.25;;
17886;SDS011;9069;52.044;7.472;2023-05-21T12:07:41;10.77;;;8.00;;
17886;SDS011;9069;52.044;7.472;2023-05-21T12:10:11;14.82;;;8.95;;
17886;SDS011;9069;52.044;7.472;2023-05-21T12:12:38;15.45;;;9.43;;
17886;SDS011;9069;52.044;7.472;2023-05-21T12:15:20;18.02;;;8.95;;
17886;SDS011;9069;52.044;7.472;2023-05-21T12:17:48;12.45;;;9.15;;
17886;SDS011;9069;52.044;7.472;2023-05-21T12:20:17;13.38;;;9.68;;
17886;SDS011;9069;52.044;7.472;2023-05-21T12:22:45;11.93;;;8.57;;
17886;SDS011;9069;52.044;7.472;2023-05-21T12:25:14;17.40;;;9.48;;
17886;SDS011;9069;52.044;7.472;2023-05-21T12:27:45;11.63;;;9.00;;
17886;SDS011;9069;52.044;7.472;2023-05-21T12:30:12;12.07;;;8.38;;
17886;SDS011;9069;52.044;7.472;2023-05-21T12:32:40;16.90;;;10.27;;
17886;SDS011;9069;52.044;7.472;2023-05-21T12:35:18;17.13;;;9.55;;
17886;SDS011;9069;52.044;7.472;2023-05-21T12:37:46;11.05;;;8.68;;
17886;SDS011;9069;52.044;7.472;2023-05-21T12:40:15;14.65;;;8.23;;
17886;SDS011;9069;52.044;7.472;2023-05-21T12:42:43;14.48;;;8.80;;
17886;SDS011;9069;52.044;7.472;2023-05-21T12:45:10;12.60;;;9.13;;
17886;SDS011;9069;52.044;7.472;2023-05-21T12:47:36;13.82;;;9.45;;
17886;SDS011;9069;52.044;7.472;2023-05-21T12:50:06;11.30;;;8.35;;
17886;SDS011;9069;52.044;7.472;2023-05-21T12:52:38;11.50;;;8.85;;
17886;SDS011;9069;52.044;7.472;2023-05-21T12:55:06;11.15;;;8.40;;
17886;SDS011;9069;52.044;7.472;2023-05-21T12:57:36;10.43;;;8.43;;
17886;SDS011;9069;52.044;7.472;2023-05-21T13:00:06;12.57;;;8.90;;
17886;SDS011;9069;52.044;7.472;2023-05-21T13:02:39;10.32;;;8.43;;
17886;SDS011;9069;52.044;7.472;2023-05-21T13:05:08;12.70;;;9.35;;
17886;SDS011;9069;52.044;7.472;2023-05-21T13:07:40;10.90;;;8.43;;
17886;SDS011;9069;52.044;7.472;2023-05-21T13:10:09;11.18;;;8.80;;
17886;SDS011;9069;52.044;7.472;2023-05-21T13:12:37;13.88;;;10.13;;
17886;SDS011;9069;52.044;7.472;2023-05-21T13:15:06;13.75;;;8.85;;
17886;SDS011;9069;52.044;7.472;2023-05-21T13:17:33;11.27;;;8.18;;
17886;SDS011;9069;52.044;7.472;2023-05-21T13:20:06;10.50;;;8.77;;
17886;SDS011;9069;52.044;7.472;2023-05-21T13:22:38;13.25;;;8.80;;
17886;SDS011;9069;52.044;7.472;2023-05-21T13:25:13;13.50;;;9.02;;
17886;SDS011;9069;52.044;7.472;2023-05-21T13:27:41;13.73;;;9.05;;
17886;SDS011;9069;52.044;7.472;2023-05-21T13:30:08;11.85;;;8.75;;
17886;SDS011;9069;52.044;7.472;2023-05-21T13:32:39;12.43;;;9.32;;
17886;SDS011;9069;52.044;7.472;2023-05-21T13:35:06;15.43;;;9.48;;
17886;SDS011;9069;52.044;7.472;2023-05-21T13:37:35;11.10;;;8.43;;
17886;SDS011;9069;52.044;7.472;2023-05-21T13:40:02;14.00;;;9.57;;
17886;SDS011;9069;52.044;7.472;2023-05-21T13:42:29;14.90;;;8.95;;
17886;SDS011;9069;52.044;7.472;2023-05-21T13:44:56;11.60;;;8.73;;
17886;SDS011;9069;52.044;7.472;2023-05-21T13:47:23;18.42;;;9.88;;
17886;SDS011;9069;52.044;7.472;2023-05-21T13:49:50;14.23;;;9.23;;
17886;SDS011;9069;52.044;7.472;2023-05-21T13:52:17;13.43;;;9.43;;
17886;SDS011;9069;52.044;7.472;2023-05-21T13:54:44;13.13;;;10.10;;
17886;SDS011;9069;52.044;7.472;2023-05-21T13:57:11;11.10;;;8.55;;
17886;SDS011;9069;52.044;7.472;2023-05-21T13:59:38;10.48;;;8.90;;
17886;SDS011;9069;52.044;7.472;2023-05-21T14:02:06;11.20;;;8.60;;
17886;SDS011;9069;52.044;7.472;2023-05-21T14:04:34;12.75;;;9.93;;
17886;SDS011;9069;52.044;7.472;2023-05-21T14:07:04;11.25;;;8.80;;
17886;SDS011;9069;52.044;7.472;2023-05-21T14:09:32;13.70;;;9.70;;
17886;SDS011;9069;52.044;7.472;2023-05-21T14:11:59;14.25;;;9.00;;
17886;SDS011;9069;52.044;7.472;2023-05-21T14:14:26;12.63;;;9.82;;
17886;SDS011;9069;52.044;7.472;2023-05-21T14:16:53;12.52;;;9.45;;
17886;SDS011;9069;52.044;7.472;2023-05-21T14:19:20;12.23;;;9.50;;
17886;SDS011;9069;52.044;7.472;2023-05-21T14:21:47;14.02;;;9.35;;
17886;SDS011;9069;52.044;7.472;2023-05-21T14:24:16;13.73;;;9.70;;
17886;SDS011;9069;52.044;7.472;2023-05-21T14:26:43;12.73;;;9.35;;
17886;SDS011;9069;52.044;7.472;2023-05-21T14:29:10;12.55;;;9.98;;
17886;SDS011;9069;52.044;7.472;2023-05-21T14:31:36;12.55;;;9.82;;
17886;SDS011;9069;52.044;7.472;2023-05-21T14:34:03;12.18;;;9.52;;
17886;SDS011;9069;52.044;7.472;2023-05-21T14:36:33;11.55;;;9.32;;
17886;SDS011;9069;52.044;7.472;2023-05-21T14:38:59;12.00;;;9.43;;
17886;SDS011;9069;52.044;7.472;2023-05-21T14:41:28;12.95;;;9.80;;
17886;SDS011;9069;52.044;7.472;2023-05-21T14:43:55;15.32;;;10.02;;
17886;SDS011;9069;52.044;7.472;2023-05-21T14:46:22;12.07;;;9.55;;
17886;SDS011;9069;52.044;7.472;2023-05-21T14:48:48;18.02;;;10.38;;
17886;SDS011;9069;52.044;7.472;2023-05-21T14:51:15;14.57;;;9.43;;
17886;SDS011;9069;52.044;7.472;2023-05-21T14:53:42;11.88;;;9.18;;
17886;SDS011;9069;52.044;7.472;2023-05-21T14:56:09;13.40;;;9.32;;
17886;SDS011;9069;52.044;7.472;2023-05-21T14:58:36;12.65;;;9.60;;
17886;SDS011;9069;52.044;7.472;2023-05-21T15:01:02;13.35;;;9.55;;
17886;SDS011;9069;52.044;7.472;2023-05-21T15:03:29;13.32;;;9.93;;
17886;SDS011;9069;52.044;7.472;2023-05-21T15:05:57;11.88;;;9.40;;
17886;SDS011;9069;52.044;7.472;2023-05-21T15:08:23;11.93;;;9.65;;
17886;SDS011;9069;52.044;7.472;2023-05-21T15:10:50;13.73;;;10.48;;
17886;SDS011;9069;52.044;7.472;2023-05-21T15:13:18;10.63;;;8.68;;
17886;SDS011;9069;52.044;7.472;2023-05-21T15:15:48;12.88;;;9.25;;
17886;SDS011;9069;52.044;7.472;2023-05-21T15:18:14;14.05;;;9.20;;
17886;SDS011;9069;52.044;7.472;2023-05-21T15:20:41;13.77;;;10.13;;
17886;SDS011;9069;52.044;7.472;2023-05-21T15:23:08;14.43;;;9.82;;
17886;SDS011;9069;52.044;7.472;2023-05-21T15:25:42;12.18;;;9.48;;
17886;SDS011;9069;52.044;7.472;2023-05-21T15:28:09;14.32;;;10.52;;
17886;SDS011;9069;52.044;7.472;2023-05-21T15:30:39;12.35;;;9.88;;
17886;SDS011;9069;52.044;7.472;2023-05-21T15:33:05;13.52;;;9.40;;
17886;SDS011;9069;52.044;7.472;2023-05-21T15:35:33;12.10;;;10.20;;
17886;SDS011;9069;52.044;7.472;2023-05-21T15:38:01;13.27;;;9.85;;
17886;SDS011;9069;52.044;7.472;2023-05-21T15:40:28;14.82;;;9.43;;
17886;SDS011;9069;52.044;7.472;2023-05-21T15:42:54;12.93;;;9.43;;
17886;SDS011;9069;52.044;7.472;2023-05-21T15:45:21;11.45;;;9.32;;
17886;SDS011;9069;52.044;7.472;2023-05-21T15:47:49;13.13;;;9.35;;